Time;durP1;ratioP1;P1;durP2;ratioP2;P2;SDS_P1;SDS_P2;PMS_P1;PMS_P2;Temp;Humidity;BMP_temperature;BMP_pressure;BME280_temperature;BME280_humidity;BME280_pressure;Samples;Min_cycle;Max_cycle;Signal;HPM_P1;HPM_P2
2022/12/05 00:00:13;;;;;;;11.03;9.90;;;;;;;9.37;95.53;100688.19;5052227;28;20193;-72
2022/12/05 00:02:39;;;;;;;12.60;9.73;;;;;;;9.38;95.55;100689.84;5051460;28;20668;-72
2022/12/05 00:05:10;;;;;;;12.50;11.07;;;;;;;9.37;95.50;100688.19;5052900;28;20220;-72
2022/12/05 00:07:37;;;;;;;11.00;9.83;;;;;;;9.39;95.53;100691.53;5052504;28;20188;-71
2022/12/05 00:10:04;;;;;;;12.33;10.10;;;;;;;9.38;95.27;100684.53;5051754;28;20608;-71
2022/12/05 00:12:31;;;;;;;10.03;9.13;;;;;;;9.39;95.34;100683.59;5051838;28;20192;-71
2022/12/05 00:14:58;;;;;;;11.03;9.57;;;;;;;9.35;95.25;100692.84;5051693;28;20258;-71
2022/12/05 00:17:24;;;;;;;11.23;9.97;;;;;;;9.33;94.85;100676.25;5052353;28;20230;-71
2022/12/05 00:19:51;;;;;;;11.43;10.33;;;;;;;9.34;95.23;100688.50;5051466;28;20228;-70
2022/12/05 00:22:19;;;;;;;11.47;8.90;;;;;;;9.27;95.07;100677.72;5051397;28;20750;-70
2022/12/05 00:24:46;;;;;;;11.77;9.43;;;;;;;9.30;94.99;100681.84;5051622;28;20281;-70
2022/12/05 00:27:12;;;;;;;10.07;9.07;;;;;;;9.30;94.73;100671.25;5051805;28;20318;-70
2022/12/05 00:29:39;;;;;;;15.70;10.37;;;;;;;9.33;95.50;100681.56;5051502;28;20197;-70
2022/12/05 00:32:06;;;;;;;10.27;9.27;;;;;;;9.36;95.16;100670.63;5051901;28;20246;-70
2022/12/05 00:34:32;;;;;;;9.90;8.87;;;;;;;9.39;94.94;100680.94;5051166;28;20196;-71
2022/12/05 00:36:59;;;;;;;12.27;10.07;;;;;;;9.34;94.66;100680.56;5055005;28;20196;-70
2022/12/05 00:39:27;;;;;;;10.93;9.83;;;;;;;9.35;95.30;100684.88;5054922;28;20193;-71
2022/12/05 00:41:54;;;;;;;11.10;10.00;;;;;;;9.38;95.74;100684.53;5055245;28;20246;-72
2022/12/05 00:44:21;;;;;;;9.70;8.73;;;;;;;9.40;95.23;100683.41;5055067;28;20201;-70
2022/12/05 00:46:47;;;;;;;9.23;8.40;;;;;;;9.42;95.49;100680.59;5054744;28;20219;-70
2022/12/05 00:49:14;;;;;;;8.93;8.23;;;;;;;9.36;95.48;100686.53;5054708;28;20189;-70
2022/12/05 00:51:43;;;;;;;12.53;9.17;;;;;;;9.27;95.23;100682.19;5054639;28;20599;-71
2022/12/05 00:54:11;;;;;;;8.43;7.77;;;;;;;9.19;95.45;100692.75;5054644;28;20726;-71
2022/12/05 00:56:40;;;;;;;8.87;8.20;;;;;;;9.14;95.77;100693.22;5055526;28;20193;-71
2022/12/05 00:59:07;;;;;;;8.90;8.03;;;;;;;9.09;96.02;100689.38;5054564;28;20670;-71
2022/12/05 01:01:36;;;;;;;8.00;7.30;;;;;;;9.07;95.78;100681.59;5054560;28;20223;-71
2022/12/05 01:04:05;;;;;;;8.17;7.57;;;;;;;9.06;96.67;100679.09;5054732;28;20192;-71
2022/12/05 01:06:32;;;;;;;8.53;7.93;;;;;;;9.09;96.28;100678.78;5054606;28;20687;-71
2022/12/05 01:08:59;;;;;;;8.70;8.07;;;;;;;9.14;96.47;100677.31;5054581;28;20609;-71
2022/12/05 01:11:27;;;;;;;7.40;6.90;;;;;;;9.20;96.88;100675.84;5055019;28;20188;-71
2022/12/05 01:13:55;;;;;;;8.47;7.77;;;;;;;9.21;96.54;100669.56;5054600;28;20188;-71
2022/12/05 01:16:25;;;;;;;8.83;8.07;;;;;;;9.28;96.16;100670.59;5054288;28;20672;-71
2022/12/05 01:18:52;;;;;;;8.47;7.77;;;;;;;9.32;95.80;100674.59;5054572;28;20197;-71
2022/12/05 01:21:20;;;;;;;9.50;8.13;;;;;;;9.35;96.24;100675.09;5055160;28;20188;-71
2022/12/05 01:23:47;;;;;;;8.87;8.07;;;;;;;9.39;95.61;100671.13;5054090;28;20255;-71
2022/12/05 01:26:16;;;;;;;9.10;8.30;;;;;;;9.27;95.78;100647.75;5054901;28;20224;-70
2022/12/05 01:28:43;;;;;;;8.93;8.23;;;;;;;9.44;95.50;100673.31;5054282;28;20254;-69
2022/12/05 01:31:21;;;;;;;9.63;8.80;;;;;;;9.14;95.71;100676.47;5054009;28;20254;-70
2022/12/05 01:33:48;;;;;;;8.90;8.30;;;;;;;9.00;96.32;100674.44;5053943;28;20231;-69
2022/12/05 01:36:15;;;;;;;10.90;9.30;;;;;;;9.03;96.47;100666.16;5053961;28;20258;-69
2022/12/05 01:38:43;;;;;;;9.27;8.47;;;;;;;9.05;96.35;100664.19;5053905;28;20192;-69
2022/12/05 01:41:13;;;;;;;9.63;8.93;;;;;;;9.10;96.39;100653.94;5054148;28;20254;-69
2022/12/05 01:43:57;;;;;;;9.80;8.93;;;;;;;9.13;96.74;100658.91;5053852;28;20284;-69
2022/12/05 01:46:26;;;;;;;9.10;8.30;;;;;;;9.14;95.88;100658.75;5053348;28;20712;-69
2022/12/05 01:48:57;;;;;;;8.90;8.07;;;;;;;9.13;96.49;100653.63;5054149;28;20196;-69
2022/12/05 01:51:25;;;;;;;10.63;9.57;;;;;;;9.12;96.53;100646.66;5053963;28;20610;-69
2022/12/05 01:53:51;;;;;;;10.40;9.50;;;;;;;9.17;96.65;100649.66;5054209;28;20193;-69
2022/12/05 01:56:19;;;;;;;11.50;10.37;;;;;;;9.21;97.00;100645.72;5054450;28;20262;-69
2022/12/05 01:58:47;;;;;;;10.17;9.03;;;;;;;9.26;96.56;100648.69;5053786;28;20193;-69
2022/12/05 02:01:16;;;;;;;12.07;10.57;;;;;;;9.27;96.22;100655.69;5053669;28;20196;-71
2022/12/05 02:03:46;;;;;;;14.70;11.27;;;;;;;9.30;96.29;100650.03;5053985;28;20193;-71
2022/12/05 02:06:13;;;;;;;16.23;10.70;;;;;;;9.32;95.99;100650.72;5053707;28;20216;-71
2022/12/05 02:08:41;;;;;;;11.87;10.77;;;;;;;9.33;96.01;100649.72;5053688;28;20253;-71
2022/12/05 02:11:09;;;;;;;12.73;11.30;;;;;;;9.37;95.85;100645.78;5053230;28;20622;-71
2022/12/05 02:14:02;;;;;;;11.10;9.93;;;;;;;9.38;95.81;100642.13;5054118;28;20564;-70
2022/12/05 02:16:42;;;;;;;10.77;9.53;;;;;;;9.37;95.14;100651.91;5053102;28;20669;-70
2022/12/05 02:19:37;;;;;;;13.07;9.93;;;;;;;9.39;95.19;100652.56;5053082;28;20232;-71
2022/12/05 02:22:25;;;;;;;10.87;9.73;;;;;;;9.43;95.77;100651.25;5053117;28;20238;-72
2022/12/05 02:25:02;;;;;;;10.70;9.70;;;;;;;9.39;94.41;100643.81;5052998;28;20180;-71
2022/12/05 02:27:45;;;;;;;12.63;9.63;;;;;;;9.42;95.51;100638.16;5053336;28;20188;-72
2022/12/05 02:30:16;;;;;;;10.17;9.23;;;;;;;9.42;95.08;100641.66;5053303;28;20575;-71
2022/12/05 02:33:05;;;;;;;10.20;9.40;;;;;;;9.46;95.11;100639.50;5053160;28;20275;-71
2022/12/05 02:35:42;;;;;;;10.87;9.03;;;;;;;9.46;95.42;100634.19;5053073;28;20185;-71
2022/12/05 02:38:18;;;;;;;11.40;9.47;;;;;;;9.50;95.43;100638.19;5052817;28;20583;-71
2022/12/05 02:40:54;;;;;;;10.67;9.67;;;;;;;9.50;95.41;100646.16;5053369;28;20188;-70
2022/12/05 02:43:24;;;;;;;11.90;8.90;;;;;;;9.50;95.21;100641.69;5053877;28;20184;-70
2022/12/05 02:45:56;;;;;;;10.13;9.13;;;;;;;9.50;94.67;100640.84;5052624;28;20636;-71
2022/12/05 02:48:27;;;;;;;11.53;9.10;;;;;;;9.52;95.23;100633.56;5052639;28;20641;-71
2022/12/05 02:50:56;;;;;;;10.03;9.03;;;;;;;9.44;94.08;100630.88;5052527;28;20189;-72
2022/12/05 02:53:25;;;;;;;11.20;9.23;;;;;;;9.44;94.94;100636.19;5052924;28;20261;-72
2022/12/05 02:55:54;;;;;;;10.97;9.27;;;;;;;9.45;95.42;100627.25;5052301;28;20627;-72
2022/12/05 02:58:26;;;;;;;10.27;8.97;;;;;;;9.48;95.44;100638.34;5051759;28;20227;-72
2022/12/05 03:00:57;;;;;;;10.03;8.73;;;;;;;9.50;95.16;100636.38;5052155;28;20185;-72
2022/12/05 03:03:25;;;;;;;10.33;9.43;;;;;;;9.49;94.84;100640.03;5052392;28;20221;-71
2022/12/05 03:05:58;;;;;;;10.70;8.90;;;;;;;9.51;94.87;100639.84;5052701;28;20220;-72
2022/12/05 03:08:30;;;;;;;13.40;10.77;;;;;;;9.52;94.81;100641.53;5052248;28;20609;-72
2022/12/05 03:11:00;;;;;;;10.57;9.57;;;;;;;9.54;94.51;100636.88;5052178;28;20187;-71
2022/12/05 03:13:29;;;;;;;10.43;9.53;;;;;;;9.53;94.04;100645.84;5052795;28;20196;-71
2022/12/05 03:16:01;;;;;;;11.20;10.20;;;;;;;9.49;94.44;100655.94;5052292;28;20273;-71
2022/12/05 03:18:31;;;;;;;11.03;10.10;;;;;;;9.50;94.63;100651.44;5053234;28;20251;-70
2022/12/05 03:21:02;;;;;;;12.47;11.23;;;;;;;9.51;95.13;100647.78;5052873;28;20224;-71
2022/12/05 03:23:33;;;;;;;12.13;10.87;;;;;;;9.45;94.42;100653.75;5052075;28;20184;-70
2022/12/05 03:26:10;;;;;;;18.00;12.13;;;;;;;9.48;94.49;100653.44;5052657;28;20258;-70
2022/12/05 03:28:46;;;;;;;14.40;12.40;;;;;;;9.48;94.92;100651.59;5052682;28;20188;-70
2022/12/05 03:31:18;;;;;;;15.00;11.87;;;;;;;9.50;95.08;100643.50;5051878;28;20241;-71
2022/12/05 03:33:50;;;;;;;13.80;11.93;;;;;;;9.45;95.21;100644.00;5052817;28;20259;-70
2022/12/05 03:36:22;;;;;;;13.93;11.60;;;;;;;9.49;94.47;100644.50;5052391;28;20326;-70
2022/12/05 03:38:56;;;;;;;13.10;11.57;;;;;;;9.47;94.95;100649.09;5052477;28;20188;-70
2022/12/05 03:41:31;;;;;;;11.43;10.27;;;;;;;9.41;95.07;100647.13;5051703;28;20714;-70
2022/12/05 03:44:04;;;;;;;12.63;10.73;;;;;;;9.32;95.44;100658.69;5052076;28;20184;-70
2022/12/05 03:46:39;;;;;;;11.33;10.30;;;;;;;9.32;95.96;100648.06;5051297;28;20680;-70
2022/12/05 03:49:11;;;;;;;10.87;9.77;;;;;;;9.34;95.85;100646.94;5051793;28;20188;-70
2022/12/05 03:51:44;;;;;;;14.57;11.67;;;;;;;9.37;96.47;100651.06;5052186;28;20262;-70
2022/12/05 03:54:17;;;;;;;14.80;11.70;;;;;;;9.38;96.03;100648.28;5052257;28;20620;-70
2022/12/05 03:56:48;;;;;;;12.00;10.77;;;;;;;9.42;95.97;100643.47;5051570;28;20222;-70
2022/12/05 03:59:20;;;;;;;20.07;15.43;;;;;;;9.40;95.49;100648.91;5051728;28;20311;-69
2022/12/05 04:01:50;;;;;;;34.43;22.63;;;;;;;9.42;95.36;100648.78;5051638;28;20180;-69
2022/12/05 04:04:21;;;;;;;15.37;12.43;;;;;;;9.29;95.45;100632.47;5051622;28;20660;-70
2022/12/05 04:06:53;;;;;;;13.00;10.87;;;;;;;9.41;95.58;100650.59;5051384;28;20684;-70
2022/12/05 04:09:26;;;;;;;14.77;12.50;;;;;;;9.44;96.21;100641.50;5052161;28;20242;-70
2022/12/05 04:11:57;;;;;;;13.30;11.00;;;;;;;9.44;95.68;100638.84;5055285;28;20180;-70
2022/12/05 04:14:32;;;;;;;11.80;10.20;;;;;;;9.44;95.55;100638.84;5055507;28;20575;-71
2022/12/05 04:17:05;;;;;;;11.87;10.47;;;;;;;9.45;95.53;100637.84;5055331;28;20199;-70
2022/12/05 04:22:24;;;;;;;12.97;10.93;;;;;;;9.47;95.39;100641.16;5055390;28;20560;-71
2022/12/05 04:27:42;;;;;;;12.77;11.47;;;;;;;9.47;95.46;100638.50;5055016;28;20799;-70
2022/12/05 04:30:12;;;;;;;13.87;11.37;;;;;;;9.46;95.52;100645.66;5055248;28;20192;-70
2022/12/05 04:32:47;;;;;;;20.23;11.70;;;;;;;9.47;95.48;100641.16;5055757;28;20247;-70
2022/12/05 04:35:19;;;;;;;14.50;11.50;;;;;;;9.46;95.73;100634.19;5056333;28;20188;-71
2022/12/05 04:37:50;;;;;;;12.90;11.43;;;;;;;9.50;95.77;100640.84;5055010;28;20246;-72
2022/12/05 04:40:22;;;;;;;13.60;11.37;;;;;;;9.48;95.30;100640.19;5055827;28;20188;-69
2022/12/05 04:42:51;;;;;;;22.20;12.43;;;;;;;9.48;95.73;100642.84;5054913;28;20181;-69
2022/12/05 04:45:21;;;;;;;22.80;12.77;;;;;;;9.48;95.79;100642.84;5054806;28;20721;-70
2022/12/05 04:47:53;;;;;;;12.63;11.30;;;;;;;9.49;95.56;100639.19;5054617;28;20317;-71
2022/12/05 04:50:22;;;;;;;16.53;12.10;;;;;;;9.48;95.55;100637.53;5056167;28;20192;-70
2022/12/05 04:52:52;;;;;;;12.90;11.70;;;;;;;9.48;95.67;100637.53;5054806;28;20199;-70
2022/12/05 04:55:24;;;;;;;16.93;11.77;;;;;;;9.48;95.39;100648.16;5055375;28;20287;-71
2022/12/05 04:57:58;;;;;;;16.87;11.97;;;;;;;9.48;95.85;100648.16;5054881;28;20193;-70
2022/12/05 05:00:27;;;;;;;16.80;12.13;;;;;;;9.48;95.68;100642.84;5055676;28;20189;-70
2022/12/05 05:03:04;;;;;;;17.80;11.83;;;;;;;9.47;95.17;100646.47;5054637;28;20246;-71
2022/12/05 05:05:32;;;;;;;20.90;12.13;;;;;;;9.49;95.25;100649.78;5054918;28;20238;-71
2022/12/05 05:07:59;;;;;;;28.47;11.93;;;;;;;9.45;96.00;100651.09;5054034;28;20251;-70
2022/12/05 05:10:33;;;;;;;18.57;11.43;;;;;;;9.44;96.11;100649.44;5054573;28;20193;-71
2022/12/05 05:12:59;;;;;;;15.60;12.50;;;;;;;9.45;95.73;100644.00;5054243;28;20657;-70
2022/12/05 05:15:26;;;;;;;12.17;10.23;;;;;;;9.26;95.55;100627.50;5054546;28;20197;-71
2022/12/05 05:17:53;;;;;;;28.30;12.83;;;;;;;8.99;96.48;100635.66;5054683;28;20196;-72
2022/12/05 05:20:24;;;;;;;17.70;12.30;;;;;;;9.05;96.97;100638.50;5054579;28;20232;-71
2022/12/05 05:22:51;;;;;;;17.03;12.17;;;;;;;9.12;96.74;100642.22;5053411;28;20195;-70
2022/12/05 05:25:19;;;;;;;16.07;11.83;;;;;;;9.19;96.64;100637.09;5054883;28;20200;-70
2022/12/05 05:27:49;;;;;;;19.50;12.40;;;;;;;9.14;96.45;100640.22;5054151;28;20700;-70
2022/12/05 05:30:17;;;;;;;18.43;12.07;;;;;;;9.17;96.84;100644.34;5054342;28;20264;-70
2022/12/05 05:32:44;;;;;;;30.60;13.00;;;;;;;9.09;96.26;100639.03;5054074;28;20625;-71
2022/12/05 05:35:11;;;;;;;17.10;12.40;;;;;;;9.01;96.62;100644.28;5055004;28;20223;-71
2022/12/05 05:37:39;;;;;;;20.87;11.53;;;;;;;9.05;97.64;100645.63;5053961;28;20242;-70
2022/12/05 05:40:07;;;;;;;18.17;12.10;;;;;;;9.10;97.81;100640.69;5054242;28;20192;-69
2022/12/05 05:42:34;;;;;;;16.50;12.63;;;;;;;9.10;96.69;100640.69;5053656;28;20620;-71
2022/12/05 05:45:01;;;;;;;14.07;12.40;;;;;;;9.13;97.51;100649.16;5053974;28;20193;-70
2022/12/05 05:47:27;;;;;;;13.33;11.03;;;;;;;9.14;97.36;100649.97;5053671;28;20293;-70
2022/12/05 05:49:57;;;;;;;17.97;12.57;;;;;;;9.15;97.85;100652.47;5054052;28;20610;-70
2022/12/05 05:52:23;;;;;;;22.20;12.50;;;;;;;9.19;97.37;100653.00;5053544;28;20192;-69
2022/12/05 05:54:51;;;;;;;19.27;11.87;;;;;;;9.17;96.91;100654.97;5053696;28;20258;-70
2022/12/05 05:57:18;;;;;;;19.27;12.67;;;;;;;9.08;96.65;100647.97;5053808;28;20630;-71
2022/12/05 05:59:46;;;;;;;13.57;11.03;;;;;;;9.16;97.18;100658.59;5053646;28;20345;-71
2022/12/05 06:02:12;;;;;;;21.17;12.70;;;;;;;9.20;97.04;100654.66;5054225;28;20192;-71
2022/12/05 06:04:39;;;;;;;19.50;12.53;;;;;;;9.24;97.08;100659.47;5054368;28;20196;-70
2022/12/05 06:07:06;;;;;;;22.33;12.90;;;;;;;9.26;97.26;100660.16;5053050;28;20213;-71
2022/12/05 06:09:32;;;;;;;20.83;13.47;;;;;;;9.30;96.93;100665.94;5053454;28;20208;-70
2022/12/05 06:12:00;;;;;;;27.70;13.53;;;;;;;9.34;96.22;100669.94;5053590;28;20192;-70
2022/12/05 06:14:27;;;;;;;27.97;14.00;;;;;;;9.37;96.33;100667.00;5053443;28;20277;-71
2022/12/05 06:16:54;;;;;;;22.30;13.27;;;;;;;9.40;96.45;100671.97;5053307;28;20196;-70
2022/12/05 06:19:20;;;;;;;46.10;15.87;;;;;;;9.35;95.53;100669.78;5052933;28;20290;-71
2022/12/05 06:21:49;;;;;;;29.20;14.93;;;;;;;9.43;96.24;100676.94;5053784;28;20534;-70
2022/12/05 06:24:15;;;;;;;28.43;15.27;;;;;;;9.31;95.98;100657.03;5053322;28;20189;-70
2022/12/05 06:26:42;;;;;;;23.83;13.83;;;;;;;9.44;95.97;100684.75;5054079;28;20224;-70
2022/12/05 06:29:11;;;;;;;30.73;14.50;;;;;;;9.47;96.39;100678.28;5053178;28;20242;-70
2022/12/05 06:31:37;;;;;;;46.60;26.07;;;;;;;9.49;96.33;100685.13;5053231;28;20624;-71
2022/12/05 06:34:04;;;;;;;76.57;48.57;;;;;;;9.50;94.64;100691.22;5053385;28;20235;-70
2022/12/05 06:36:31;;;;;;;71.90;35.37;;;;;;;9.50;95.49;100702.69;5053299;28;20196;-71
2022/12/05 06:38:58;;;;;;;67.83;18.97;;;;;;;9.48;95.37;100696.69;5052609;28;20219;-71
2022/12/05 06:41:26;;;;;;;35.90;16.17;;;;;;;9.50;95.59;100700.03;5053128;28;20251;-70
2022/12/05 06:43:54;;;;;;;47.10;17.90;;;;;;;9.54;96.01;100705.84;5052825;28;20189;-71
2022/12/05 06:46:22;;;;;;;42.07;16.07;;;;;;;9.55;95.45;100707.50;5052981;28;20224;-72
2022/12/05 06:48:49;;;;;;;36.47;16.30;;;;;;;9.60;95.28;100710.53;5052748;28;20196;-70
2022/12/05 06:51:17;;;;;;;40.67;17.53;;;;;;;9.63;95.39;100711.03;5052765;28;20196;-72
2022/12/05 06:53:43;;;;;;;37.93;18.40;;;;;;;9.68;95.50;100707.91;5052599;28;20254;-72
2022/12/05 06:56:13;;;;;;;43.50;18.17;;;;;;;9.71;95.38;100708.41;5052985;28;20685;-72
2022/12/05 06:58:40;;;;;;;39.47;19.37;;;;;;;9.76;95.24;100718.53;5051692;28;20200;-78
2022/12/05 07:03:57;;;;;;;38.60;20.93;;;;;;;9.80;94.72;100717.22;5052365;28;20199;-76
2022/12/05 07:06:23;;;;;;;37.13;21.00;;;;;;;9.85;94.13;100730.84;5052622;28;20189;-73
2022/12/05 07:08:50;;;;;;;51.43;23.27;;;;;;;9.91;94.61;100719.56;5052567;28;20258;-73
2022/12/05 07:11:17;;;;;;;51.83;24.43;;;;;;;9.96;94.52;100725.22;5052895;28;20193;-72
2022/12/05 07:13:43;;;;;;;45.87;23.40;;;;;;;9.84;93.61;100726.50;5052597;28;20197;-73
2022/12/05 07:16:10;;;;;;;49.23;22.80;;;;;;;9.90;93.45;100728.53;5048975;28;20197;-69
2022/12/05 07:18:37;;;;;;;46.63;24.37;;;;;;;9.90;93.42;100723.22;5051170;28;20242;-74
2022/12/05 07:21:07;;;;;;;42.70;23.63;;;;;;;9.94;93.80;100724.56;5051265;28;20224;-75
2022/12/05 07:23:34;;;;;;;55.70;25.30;;;;;;;10.00;94.92;100727.38;5051226;28;20192;-75
2022/12/05 07:26:05;;;;;;;70.80;26.07;;;;;;;10.08;94.49;100729.25;5052069;28;20196;-73
2022/12/05 07:28:32;;;;;;;53.57;25.27;;;;;;;10.12;94.12;100734.09;5051617;28;20284;-75
2022/12/05 07:31:01;;;;;;;43.53;22.47;;;;;;;10.19;93.01;100731.59;5051979;28;20200;-74
2022/12/05 07:33:27;;;;;;;51.07;22.30;;;;;;;10.23;92.15;100732.94;5051691;28;20192;-77
2022/12/05 07:35:59;;;;;;;71.47;37.17;;;;;;;10.22;92.14;100733.94;5052370;28;20630;-72
2022/12/05 07:38:28;;;;;;;59.07;34.47;;;;;;;10.22;92.54;100725.97;5051593;28;20291;-75
2022/12/05 07:40:55;;;;;;;81.20;33.93;;;;;;;10.31;92.00;100733.81;5051257;28;20189;-71
2022/12/05 07:43:21;;;;;;;57.40;30.37;;;;;;;10.35;92.13;100735.13;5051891;28;20587;-76
2022/12/05 07:45:48;;;;;;;55.80;26.13;;;;;;;10.28;91.05;100730.63;5051448;28;20193;-80
2022/12/05 07:48:15;;;;;;;52.93;25.93;;;;;;;10.24;92.07;100731.94;5052307;28;20228;-77
2022/12/05 07:50:42;;;;;;;45.50;23.93;;;;;;;10.19;92.18;100735.09;5051153;28;20204;-81
2022/12/05 07:53:08;;;;;;;63.60;29.17;;;;;;;10.23;92.49;100730.28;5051862;28;20193;-73
2022/12/05 07:55:37;;;;;;;62.47;28.80;;;;;;;10.09;92.14;100712.34;5051720;28;20207;-76
2022/12/05 07:58:04;;;;;;;60.00;23.57;;;;;;;10.31;92.24;100735.59;5052024;28;20701;-73
2022/12/05 08:00:31;;;;;;;51.33;22.50;;;;;;;10.39;92.01;100732.97;5051654;28;20254;-72
2022/12/05 08:02:57;;;;;;;59.13;23.80;;;;;;;10.47;91.02;100738.28;5049616;28;20283;-74
2022/12/05 08:05:24;;;;;;;47.13;22.17;;;;;;;10.48;90.31;100730.16;5034085;28;20193;-73
2022/12/05 08:07:51;;;;;;;49.43;22.47;;;;;;;10.55;90.24;100735.63;5051696;28;20227;-73
2022/12/05 08:10:18;;;;;;;65.13;26.77;;;;;;;10.58;90.95;100744.09;5049771;28;20192;-74
2022/12/05 08:12:46;;;;;;;52.47;25.50;;;;;;;10.58;90.45;100745.94;5051966;28;20242;-74
2022/12/05 08:15:12;;;;;;;58.80;23.30;;;;;;;10.63;90.78;100739.09;5032678;28;20197;-79
2022/12/05 08:17:39;;;;;;;45.60;22.90;;;;;;;10.70;89.31;100736.63;5035773;28;20699;-74
2022/12/05 08:20:07;;;;;;;47.63;23.73;;;;;;;10.65;88.19;100731.81;5051549;28;20282;-73
2022/12/05 08:22:34;;;;;;;42.87;23.37;;;;;;;10.76;87.50;100750.09;5051278;28;20201;-73
2022/12/05 08:25:01;;;;;;;50.13;25.13;;;;;;;10.71;87.36;100746.28;5051421;28;20197;-74
2022/12/05 08:27:27;;;;;;;48.50;23.33;;;;;;;10.67;87.95;100740.44;5051297;28;20704;-77
2022/12/05 08:29:55;;;;;;;48.83;24.40;;;;;;;10.66;87.77;100732.66;5051830;28;20189;-74
2022/12/05 08:32:22;;;;;;;44.63;23.47;;;;;;;10.72;87.65;100732.81;5051027;28;20253;-72
2022/12/05 08:34:49;;;;;;;59.53;24.30;;;;;;;10.75;88.02;100729.81;5051387;28;20205;-73
2022/12/05 08:37:16;;;;;;;138.83;28.17;;;;;;;10.74;88.01;100724.66;5045626;28;20193;-75
2022/12/05 08:39:42;;;;;;;56.80;24.50;;;;;;;10.68;88.94;100720.03;5040679;28;20544;-74
2022/12/05 08:42:09;;;;;;;49.93;25.10;;;;;;;10.67;89.71;100723.69;5030044;28;20255;-75
2022/12/05 08:44:36;;;;;;;47.37;25.17;;;;;;;10.67;89.22;100723.69;5043744;28;20201;-75
2022/12/05 08:47:04;;;;;;;46.13;25.03;;;;;;;10.61;89.35;100719.84;5051177;28;20652;-76
2022/12/05 08:49:30;;;;;;;55.40;25.20;;;;;;;10.52;89.26;100706.75;5049753;28;20730;-72
2022/12/05 08:51:57;;;;;;;51.80;23.80;;;;;;;10.59;89.57;100707.75;5051504;28;20208;-73
2022/12/05 08:54:24;;;;;;;44.53;25.30;;;;;;;10.70;88.61;100708.22;5050895;28;20196;-73
2022/12/05 08:56:51;;;;;;;53.23;27.57;;;;;;;10.69;88.13;100700.41;5050190;28;20259;-73
2022/12/05 08:59:18;;;;;;;66.27;26.63;;;;;;;10.76;88.46;100706.72;5054348;28;20677;-73
2022/12/05 09:01:45;;;;;;;52.80;25.10;;;;;;;10.79;88.39;100709.88;5054714;28;20577;-72
2022/12/05 09:04:13;;;;;;;45.43;23.00;;;;;;;10.80;86.98;100708.06;5055064;28;20192;-74
2022/12/05 09:06:41;;;;;;;46.50;24.50;;;;;;;10.87;87.33;100698.41;5054277;28;20661;-76
2022/12/05 09:09:10;;;;;;;71.37;26.87;;;;;;;10.86;86.70;100702.06;5053513;28;20251;-72
2022/12/05 09:11:42;;;;;;;52.50;24.13;;;;;;;10.78;86.44;100699.41;5052835;28;20657;-71
2022/12/05 09:14:09;;;;;;;42.70;24.87;;;;;;;10.81;86.63;100688.44;5054088;28;20188;-70
2022/12/05 09:16:37;;;;;;;83.43;25.73;;;;;;;10.87;86.37;100693.09;5053187;28;20204;-71
2022/12/05 09:19:05;;;;;;;47.67;25.33;;;;;;;10.92;86.05;100690.75;5052306;28;20256;-71
2022/12/05 09:21:33;;;;;;;53.33;26.13;;;;;;;10.91;86.34;100689.13;5053857;28;20668;-70
2022/12/05 09:24:01;;;;;;;49.50;24.33;;;;;;;10.91;86.44;100686.44;5045902;28;20185;-69
2022/12/05 09:26:29;;;;;;;51.30;23.07;;;;;;;10.95;86.43;100679.81;5049124;28;20193;-71
2022/12/05 09:28:57;;;;;;;53.00;21.00;;;;;;;11.06;86.05;100682.09;5054292;28;20316;-71
2022/12/05 09:31:25;;;;;;;47.73;19.70;;;;;;;11.21;88.43;100667.09;5054112;28;20200;-76
2022/12/05 09:33:53;;;;;;;38.50;20.60;;;;;;;11.16;85.24;100674.75;5054362;28;20259;-75
2022/12/05 09:36:23;;;;;;;37.87;18.13;;;;;;;11.18;83.69;100672.75;5054473;28;20228;-82
2022/12/05 09:38:52;;;;;;;33.53;19.77;;;;;;;11.14;83.32;100671.41;5054035;28;20241;-76
2022/12/05 09:44:24;;;;;;;31.90;17.13;;;;;;;11.26;82.30;100667.41;5053466;28;20308;-73
2022/12/05 09:46:55;;;;;;;33.43;17.60;;;;;;;11.39;82.17;100669.53;5054033;28;20189;-72
2022/12/05 09:49:24;;;;;;;32.97;17.70;;;;;;;11.44;81.86;100665.34;5053776;28;20247;-73
2022/12/05 09:51:52;;;;;;;33.13;18.33;;;;;;;11.39;81.11;100667.66;5053472;28;20657;-73
2022/12/05 09:54:21;;;;;;;41.47;18.77;;;;;;;11.38;81.27;100671.34;5054697;28;20193;-70
2022/12/05 09:56:51;;;;;;;37.80;23.03;;;;;;;11.32;81.59;100669.38;5052949;28;20201;-70
2022/12/05 09:59:20;;;;;;;61.67;29.33;;;;;;;11.28;81.83;100665.41;5053833;28;20220;-71
2022/12/05 10:01:55;;;;;;;132.43;48.60;;;;;;;11.17;82.37;100663.13;5054585;28;20225;-71
2022/12/05 10:04:51;;;;;;;55.17;24.33;;;;;;;10.93;82.91;100655.19;5052882;28;20200;-68
2022/12/05 10:07:27;;;;;;;54.20;25.77;;;;;;;10.93;83.31;100657.84;5053561;28;20189;-70
2022/12/05 10:10:14;;;;;;;73.03;37.40;;;;;;;10.90;83.32;100650.22;5053282;28;20254;-72
2022/12/05 10:12:52;;;;;;;57.13;26.83;;;;;;;10.96;83.03;100658.34;5053633;28;20184;-71
2022/12/05 10:15:27;;;;;;;64.67;26.47;;;;;;;11.03;83.05;100655.84;5053238;28;20242;-70
2022/12/05 10:17:59;;;;;;;54.43;23.53;;;;;;;11.06;83.01;100650.16;5054020;28;20192;-72
2022/12/05 10:20:32;;;;;;;37.37;22.50;;;;;;;11.13;82.50;100655.63;5053077;28;20233;-71
2022/12/05 10:23:03;;;;;;;62.70;24.33;;;;;;;11.25;82.82;100655.09;5053833;28;20193;-71
2022/12/05 10:25:34;;;;;;;47.67;25.03;;;;;;;11.33;82.27;100656.91;5042189;28;20184;-70
2022/12/05 10:28:06;;;;;;;55.93;27.30;;;;;;;11.35;82.00;100654.91;5053603;28;20239;-73
2022/12/05 10:30:34;;;;;;;77.90;27.93;;;;;;;11.32;82.01;100648.09;5052914;28;20712;-73
2022/12/05 10:33:04;;;;;;;121.97;28.27;;;;;;;11.36;82.48;100646.75;5052840;28;20283;-73
2022/12/05 10:35:35;;;;;;;76.40;26.47;;;;;;;11.40;82.12;100642.75;5052712;28;20274;-71
2022/12/05 10:38:06;;;;;;;48.93;25.37;;;;;;;11.31;81.88;100643.75;5057790;28;20204;-71
2022/12/05 10:40:37;;;;;;;42.90;25.03;;;;;;;11.06;81.72;100607.63;5051914;28;20648;-70
2022/12/05 10:43:07;;;;;;;53.70;25.53;;;;;;;11.16;82.44;100629.53;5052716;28;20189;-71
2022/12/05 10:45:39;;;;;;;58.87;26.30;;;;;;;11.17;82.77;100620.56;5052597;28;20193;-70
2022/12/05 10:48:09;;;;;;;62.63;26.93;;;;;;;11.35;81.89;100634.44;5052610;28;20213;-70
2022/12/05 10:50:38;;;;;;;47.43;26.03;;;;;;;11.49;81.49;100624.91;5052680;28;20195;-68
2022/12/05 10:53:06;;;;;;;49.03;25.30;;;;;;;11.58;80.35;100623.84;5052463;28;20657;-68
2022/12/05 10:55:39;;;;;;;43.77;25.10;;;;;;;11.67;79.78;100628.19;5052230;28;20624;-69
2022/12/05 10:58:12;;;;;;;44.17;24.77;;;;;;;11.78;79.57;100620.59;5052825;28;20263;-72
2022/12/05 11:00:45;;;;;;;35.60;23.93;;;;;;;11.85;78.44;100613.59;5052375;28;20610;-72
2022/12/05 11:03:24;;;;;;;39.50;25.23;;;;;;;11.88;77.56;100612.41;5053033;28;20193;-70
2022/12/05 11:05:51;;;;;;;52.23;24.20;;;;;;;11.88;77.66;100605.22;5052659;28;20197;-72
2022/12/05 11:08:23;;;;;;;46.07;24.60;;;;;;;11.82;77.18;100600.63;5052161;28;20220;-68
2022/12/05 11:11:01;;;;;;;40.67;24.03;;;;;;;11.85;78.11;100594.94;5051806;28;20221;-73
2022/12/05 11:13:27;;;;;;;48.20;24.70;;;;;;;11.88;77.63;100597.22;5052075;28;20661;-71
2022/12/05 11:15:54;;;;;;;48.10;24.00;;;;;;;11.91;77.84;100599.56;5052500;28;20248;-71
2022/12/05 11:18:30;;;;;;;40.53;23.60;;;;;;;11.94;77.77;100588.56;5052086;28;20201;-70
2022/12/05 11:21:08;;;;;;;44.73;21.87;;;;;;;12.05;76.86;100592.63;5051767;28;20695;-71
2022/12/05 11:23:35;;;;;;;44.53;22.40;;;;;;;12.12;76.59;100590.91;5047922;28;20186;-73
2022/12/05 11:26:03;;;;;;;64.27;25.07;;;;;;;12.18;76.46;100587.53;5045495;28;20626;-69
2022/12/05 11:28:36;;;;;;;51.83;25.17;;;;;;;12.19;76.42;100587.34;5051597;28;20216;-73
2022/12/05 11:31:07;;;;;;;45.17;23.20;;;;;;;12.22;76.15;100576.34;5052323;28;20195;-71
2022/12/05 11:33:36;;;;;;;41.47;23.77;;;;;;;12.18;75.81;100579.53;5051865;28;20190;-69
2022/12/05 11:36:14;;;;;;;40.83;23.00;;;;;;;12.09;76.19;100577.94;5052132;28;20592;-70
2022/12/05 11:38:41;;;;;;;66.37;28.07;;;;;;;12.01;76.81;100573.50;5062923;28;20194;-70